This is the latest recevied weather packets stored in our database for station/object DO1SC. If no packets are shown the sender has not sent any weather packets the latest 10 day(s).
| Time | Temp. | Humidity | Pressure | Rain* | Wind** | Luminosity | Snow |
|---|---|---|---|---|---|---|---|
| 1777718130 | 20.56° C | 33% | 1023.6 hPa | - | - | 659 W/m² | - |
| 1777717522 | 20.56° C | 34% | 1023.7 hPa | - | - | 631 W/m² | - |
| 1777716933 | 20.56° C | 35% | 1023.9 hPa | - | - | 637 W/m² | - |
| 1777716325 | 20.56° C | 34% | 1024 hPa | - | - | 629 W/m² | - |
| 1777715735 | 20° C | 35% | 1024.1 hPa | - | - | 625 W/m² | - |
| 1777715126 | 20° C | 35% | 1024.2 hPa | - | - | 614 W/m² | - |
| 1777714533 | 19.44° C | 35% | 1024.3 hPa | - | - | 601 W/m² | - |
| 1777713924 | 19.44° C | 35% | 1024.4 hPa | - | - | 586 W/m² | - |
| 1777713336 | 19.44° C | 34% | 1024.4 hPa | - | - | 567 W/m² | - |
| 1777712727 | 19.44° C | 33% | 1024.6 hPa | - | - | 540 W/m² | - |
| 1777712119 | 18.89° C | 34% | 1024.6 hPa | - | - | 507 W/m² | - |
| 1777711530 | 19.44° C | 35% | 1024.7 hPa | - | - | 239 W/m² | - |
| 1777710921 | 18.33° C | 35% | 1024.7 hPa | - | - | 468 W/m² | - |
| 1777710336 | 18.33° C | 36% | 1024.8 hPa | - | - | 470 W/m² | - |
| 1777709725 | 18.33° C | 36% | 1024.8 hPa | - | - | 455 W/m² | - |
| 1777709136 | 17.78° C | 37% | 1024.8 hPa | - | - | 435 W/m² | - |
| 1777708527 | 17.78° C | 38% | 1024.9 hPa | - | - | 412 W/m² | - |
| 1777707918 | 17.78° C | 39% | 1025 hPa | - | - | 389 W/m² | - |
| 1777707329 | 17.78° C | 40% | 1025 hPa | - | - | 356 W/m² | - |
| 1777706721 | 17.22° C | 40% | 1025 hPa | - | - | 340 W/m² | - |
| 1777706132 | 17.22° C | 41% | 1025 hPa | - | - | 311 W/m² | - |
| 1777705523 | 16.67° C | 42% | 1025 hPa | - | - | 280 W/m² | - |
| 1777704935 | 16.11° C | 43% | 1025 hPa | - | - | 246 W/m² | - |
| 1777704330 | 16.11° C | 46% | 1025 hPa | - | - | 199 W/m² | - |
| 1777703717 | 15.56° C | 45% | 1025.1 hPa | - | - | 143 W/m² | - |
* Rain since midnight (hover to see other rain measurements)
** Current wind speed in m/s (hover to see current wind gust speed)